sensor_id;sensor_type;location;lat;lon;timestamp;pressure;altitude;pressure_sealevel;temperature;humidity
40460;BME280;26164;51.138;16.952;2023-01-25T00:00:43;79139.28;;;-146.39;100.00
40460;BME280;26164;51.138;16.952;2023-01-25T00:03:23;79145.41;;;-146.39;100.00
40460;BME280;26164;51.138;16.952;2023-01-25T00:05:57;79143.34;;;-146.39;100.00
40460;BME280;26164;51.138;16.952;2023-01-25T00:08:25;79131.09;;;-146.39;100.00
40460;BME280;26164;51.138;16.952;2023-01-25T00:10:51;79118.84;;;-146.39;100.00
40460;BME280;26164;51.138;16.952;2023-01-25T00:13:17;79131.09;;;-146.39;100.00
40460;BME280;26164;51.138;16.952;2023-01-25T00:15:43;79112.72;;;-146.39;100.00
40460;BME280;26164;51.138;16.952;2023-01-25T00:18:11;79112.72;;;-146.39;100.00
40460;BME280;26164;51.138;16.952;2023-01-25T00:20:37;79116.81;;;-146.39;100.00
40460;BME280;26164;51.138;16.952;2023-01-25T00:23:08;79129.06;;;-146.39;100.00
40460;BME280;26164;51.138;16.952;2023-01-25T00:25:36;79129.06;;;-146.39;100.00
40460;BME280;26164;51.138;16.952;2023-01-25T00:28:04;79124.97;;;-146.39;100.00
40460;BME280;26164;51.138;16.952;2023-01-25T00:30:31;79127.00;;;-146.39;100.00
40460;BME280;26164;51.138;16.952;2023-01-25T00:33:01;79133.16;;;-146.39;100.00
40460;BME280;26164;51.138;16.952;2023-01-25T00:35:31;79137.22;;;-146.39;100.00
40460;BME280;26164;51.138;16.952;2023-01-25T00:38:01;79133.16;;;-146.39;100.00
40460;BME280;26164;51.138;16.952;2023-01-25T00:40:27;79124.97;;;-146.39;100.00
40460;BME280;26164;51.138;16.952;2023-01-25T00:42:53;79112.72;;;-146.39;100.00
40460;BME280;26164;51.138;16.952;2023-01-25T00:45:21;79116.81;;;-146.39;100.00
40460;BME280;26164;51.138;16.952;2023-01-25T00:47:46;79112.72;;;-146.39;100.00
40460;BME280;26164;51.138;16.952;2023-01-25T00:50:16;79112.72;;;-146.39;100.00
40460;BME280;26164;51.138;16.952;2023-01-25T00:52:42;79112.72;;;-146.39;100.00
40460;BME280;26164;51.138;16.952;2023-01-25T00:55:09;79120.88;;;-146.39;100.00
40460;BME280;26164;51.138;16.952;2023-01-25T00:57:37;79112.72;;;-146.39;100.00
40460;BME280;26164;51.138;16.952;2023-01-25T01:00:03;79088.19;;;-146.39;100.00
40460;BME280;26164;51.138;16.952;2023-01-25T01:02:29;79088.19;;;-146.39;100.00
40460;BME280;26164;51.138;16.952;2023-01-25T01:04:57;79080.03;;;-146.39;100.00
40460;BME280;26164;51.138;16.952;2023-01-25T01:07:22;79075.94;;;-146.39;100.00
40460;BME280;26164;51.138;16.952;2023-01-25T01:09:50;79082.06;;;-146.39;100.00
40460;BME280;26164;51.138;16.952;2023-01-25T01:12:16;79063.69;;;-146.39;100.00
40460;BME280;26164;51.138;16.952;2023-01-25T01:14:42;79051.44;;;-146.39;100.00
40460;BME280;26164;51.138;16.952;2023-01-25T01:17:08;79047.34;;;-146.39;100.00
40460;BME280;26164;51.138;16.952;2023-01-25T01:19:34;79043.25;;;-146.39;100.00
40460;BME280;26164;51.138;16.952;2023-01-25T01:22:02;79024.88;;;-146.39;100.00
40460;BME280;26164;51.138;16.952;2023-01-25T01:24:29;79026.91;;;-146.39;100.00
40460;BME280;26164;51.138;16.952;2023-01-25T01:26:55;79024.88;;;-146.39;100.00
40460;BME280;26164;51.138;16.952;2023-01-25T01:29:21;79039.19;;;-146.39;100.00
40460;BME280;26164;51.138;16.952;2023-01-25T01:31:49;79026.91;;;-146.39;100.00
40460;BME280;26164;51.138;16.952;2023-01-25T01:34:23;79022.84;;;-146.39;100.00
40460;BME280;26164;51.138;16.952;2023-01-25T01:36:49;79022.84;;;-146.39;100.00
40460;BME280;26164;51.138;16.952;2023-01-25T01:39:16;79022.84;;;-146.39;100.00
40460;BME280;26164;51.138;16.952;2023-01-25T01:41:42;79022.84;;;-146.39;100.00
40460;BME280;26164;51.138;16.952;2023-01-25T01:44:21;79022.84;;;-146.39;100.00
40460;BME280;26164;51.138;16.952;2023-01-25T01:47:44;79035.09;;;-146.39;100.00
40460;BME280;26164;51.138;16.952;2023-01-25T01:50:16;79022.84;;;-146.39;100.00
40460;BME280;26164;51.138;16.952;2023-01-25T01:52:43;79026.91;;;-146.39;100.00
40460;BME280;26164;51.138;16.952;2023-01-25T01:55:13;79018.75;;;-146.39;100.00
40460;BME280;26164;51.138;16.952;2023-01-25T01:57:48;79010.56;;;-146.39;100.00
40460;BME280;26164;51.138;16.952;2023-01-25T02:00:20;79012.63;;;-146.39;100.00
40460;BME280;26164;51.138;16.952;2023-01-25T02:02:48;79006.50;;;-146.39;100.00
40460;BME280;26164;51.138;16.952;2023-01-25T02:05:25;79006.50;;;-146.39;100.00
40460;BME280;26164;51.138;16.952;2023-01-25T02:07:52;79002.41;;;-146.39;100.00
40460;BME280;26164;51.138;16.952;2023-01-25T02:10:25;79002.41;;;-146.39;100.00
40460;BME280;26164;51.138;16.952;2023-01-25T02:12:54;78977.91;;;-146.39;100.00
40460;BME280;26164;51.138;16.952;2023-01-25T02:15:22;78977.91;;;-146.39;100.00
40460;BME280;26164;51.138;16.952;2023-01-25T02:17:48;78986.06;;;-146.39;100.00
40460;BME280;26164;51.138;16.952;2023-01-25T02:20:32;78996.28;;;-146.39;100.00
40460;BME280;26164;51.138;16.952;2023-01-25T02:26:06;79004.44;;;-146.39;100.00
40460;BME280;26164;51.138;16.952;2023-01-25T02:28:46;79026.91;;;-146.39;100.00
40460;BME280;26164;51.138;16.952;2023-01-25T02:31:13;79014.66;;;-146.39;100.00
40460;BME280;26164;51.138;16.952;2023-01-25T02:33:39;78994.25;;;-146.39;100.00
40460;BME280;26164;51.138;16.952;2023-01-25T02:38:38;79022.84;;;-146.39;100.00
40460;BME280;26164;51.138;16.952;2023-01-25T02:41:12;79014.66;;;-146.39;100.00
40460;BME280;26164;51.138;16.952;2023-01-25T02:43:40;79008.53;;;-146.39;100.00
40460;BME280;26164;51.138;16.952;2023-01-25T02:46:14;79014.66;;;-146.39;100.00
40460;BME280;26164;51.138;16.952;2023-01-25T02:48:46;78994.25;;;-146.39;100.00
40460;BME280;26164;51.138;16.952;2023-01-25T02:51:12;78981.97;;;-146.39;100.00
40460;BME280;26164;51.138;16.952;2023-01-25T02:53:40;78998.31;;;-146.39;100.00
40460;BME280;26164;51.138;16.952;2023-01-25T02:56:06;79024.88;;;-146.39;100.00
40460;BME280;26164;51.138;16.952;2023-01-25T02:58:32;79016.72;;;-146.39;100.00
40460;BME280;26164;51.138;16.952;2023-01-25T03:00:58;79014.66;;;-146.39;100.00
40460;BME280;26164;51.138;16.952;2023-01-25T03:03:24;79022.84;;;-146.39;100.00
40460;BME280;26164;51.138;16.952;2023-01-25T03:05:52;79031.00;;;-146.39;100.00
40460;BME280;26164;51.138;16.952;2023-01-25T03:08:17;79035.09;;;-146.39;100.00
40460;BME280;26164;51.138;16.952;2023-01-25T03:10:48;79014.66;;;-146.39;100.00
40460;BME280;26164;51.138;16.952;2023-01-25T03:13:14;79024.88;;;-146.39;100.00
40460;BME280;26164;51.138;16.952;2023-01-25T03:15:41;79043.25;;;-146.39;100.00
40460;BME280;26164;51.138;16.952;2023-01-25T03:18:06;79031.00;;;-146.39;100.00
40460;BME280;26164;51.138;16.952;2023-01-25T03:20:32;79039.19;;;-146.39;100.00
40460;BME280;26164;51.138;16.952;2023-01-25T03:22:58;79035.09;;;-146.39;100.00
40460;BME280;26164;51.138;16.952;2023-01-25T03:25:25;79018.75;;;-146.39;100.00
40460;BME280;26164;51.138;16.952;2023-01-25T03:27:58;79024.88;;;-146.39;100.00
40460;BME280;26164;51.138;16.952;2023-01-25T03:30:25;79039.19;;;-146.39;100.00
40460;BME280;26164;51.138;16.952;2023-01-25T03:32:51;79006.50;;;-146.39;100.00
40460;BME280;26164;51.138;16.952;2023-01-25T03:35:19;79002.41;;;-146.39;100.00
40460;BME280;26164;51.138;16.952;2023-01-25T03:37:45;79010.56;;;-146.39;100.00
40460;BME280;26164;51.138;16.952;2023-01-25T03:40:14;79016.72;;;-146.39;100.00
40460;BME280;26164;51.138;16.952;2023-01-25T03:42:43;79022.84;;;-146.39;100.00
40460;BME280;26164;51.138;16.952;2023-01-25T03:45:09;79002.41;;;-146.39;100.00
40460;BME280;26164;51.138;16.952;2023-01-25T03:47:40;78994.25;;;-146.39;100.00
40460;BME280;26164;51.138;16.952;2023-01-25T03:50:08;79006.50;;;-146.39;100.00
40460;BME280;26164;51.138;16.952;2023-01-25T03:52:40;79024.88;;;-146.39;100.00
40460;BME280;26164;51.138;16.952;2023-01-25T03:55:11;78998.31;;;-146.39;100.00
40460;BME280;26164;51.138;16.952;2023-01-25T03:57:40;79002.41;;;-146.39;100.00
40460;BME280;26164;51.138;16.952;2023-01-25T04:00:07;79014.66;;;-146.39;100.00
40460;BME280;26164;51.138;16.952;2023-01-25T04:02:40;79022.84;;;-146.39;100.00
40460;BME280;26164;51.138;16.952;2023-01-25T04:05:08;79022.84;;;-146.39;100.00
40460;BME280;26164;51.138;16.952;2023-01-25T04:07:36;79006.50;;;-146.39;100.00
40460;BME280;26164;51.138;16.952;2023-01-25T04:10:04;78986.06;;;-146.39;100.00
40460;BME280;26164;51.138;16.952;2023-01-25T04:12:30;78998.31;;;-146.39;100.00
40460;BME280;26164;51.138;16.952;2023-01-25T04:14:57;78981.97;;;-146.39;100.00
40460;BME280;26164;51.138;16.952;2023-01-25T04:17:24;78971.78;;;-146.39;100.00
40460;BME280;26164;51.138;16.952;2023-01-25T04:19:59;78977.91;;;-146.39;100.00
40460;BME280;26164;51.138;16.952;2023-01-25T04:22:32;79002.41;;;-146.39;100.00
40460;BME280;26164;51.138;16.952;2023-01-25T04:24:58;78986.06;;;-146.39;100.00
40460;BME280;26164;51.138;16.952;2023-01-25T04:27:24;78998.31;;;-146.39;100.00
40460;BME280;26164;51.138;16.952;2023-01-25T04:30:05;78990.16;;;-146.39;100.00
40460;BME280;26164;51.138;16.952;2023-01-25T04:32:35;78990.16;;;-146.39;100.00
40460;BME280;26164;51.138;16.952;2023-01-25T04:35:04;78998.31;;;-146.39;100.00
40460;BME280;26164;51.138;16.952;2023-01-25T04:37:30;79002.41;;;-146.39;100.00
40460;BME280;26164;51.138;16.952;2023-01-25T04:39:59;78990.16;;;-146.39;100.00
40460;BME280;26164;51.138;16.952;2023-01-25T04:42:29;78977.91;;;-146.39;100.00
40460;BME280;26164;51.138;16.952;2023-01-25T04:44:56;78977.91;;;-146.39;100.00
40460;BME280;26164;51.138;16.952;2023-01-25T04:47:22;78975.84;;;-146.39;100.00
40460;BME280;26164;51.138;16.952;2023-01-25T04:49:48;78959.50;;;-146.39;100.00
40460;BME280;26164;51.138;16.952;2023-01-25T04:52:17;78984.03;;;-146.39;100.00
40460;BME280;26164;51.138;16.952;2023-01-25T04:54:43;78984.03;;;-146.39;100.00
40460;BME280;26164;51.138;16.952;2023-01-25T04:57:10;78969.72;;;-146.39;100.00
40460;BME280;26164;51.138;16.952;2023-01-25T04:59:38;78977.91;;;-146.39;100.00
40460;BME280;26164;51.138;16.952;2023-01-25T05:02:04;78969.72;;;-146.39;100.00
40460;BME280;26164;51.138;16.952;2023-01-25T05:04:30;78965.63;;;-146.39;100.00
40460;BME280;26164;51.138;16.952;2023-01-25T05:06:56;78969.72;;;-146.39;100.00
40460;BME280;26164;51.138;16.952;2023-01-25T05:09:23;78965.63;;;-146.39;100.00
40460;BME280;26164;51.138;16.952;2023-01-25T05:11:48;78971.78;;;-146.39;100.00
40460;BME280;26164;51.138;16.952;2023-01-25T05:14:23;78981.97;;;-146.39;100.00
40460;BME280;26164;51.138;16.952;2023-01-25T05:16:49;78981.97;;;-146.39;100.00
40460;BME280;26164;51.138;16.952;2023-01-25T05:19:15;78977.91;;;-146.39;100.00
40460;BME280;26164;51.138;16.952;2023-01-25T05:22:03;78984.03;;;-146.39;100.00
40460;BME280;26164;51.138;16.952;2023-01-25T05:24:46;78981.97;;;-146.39;100.00
40460;BME280;26164;51.138;16.952;2023-01-25T05:27:16;78975.84;;;-146.39;100.00
40460;BME280;26164;51.138;16.952;2023-01-25T05:29:48;78973.81;;;-146.39;100.00
40460;BME280;26164;51.138;16.952;2023-01-25T05:32:19;78969.72;;;-146.39;100.00
40460;BME280;26164;51.138;16.952;2023-01-25T05:34:46;78965.63;;;-146.39;100.00
40460;BME280;26164;51.138;16.952;2023-01-25T05:37:17;78965.63;;;-146.39;100.00
40460;BME280;26164;51.138;16.952;2023-01-25T05:39:45;78965.63;;;-146.39;100.00
40460;BME280;26164;51.138;16.952;2023-01-25T05:42:15;78955.44;;;-146.39;100.00
40460;BME280;26164;51.138;16.952;2023-01-25T05:44:42;78959.50;;;-146.39;100.00
40460;BME280;26164;51.138;16.952;2023-01-25T05:47:12;78965.63;;;-146.39;100.00
40460;BME280;26164;51.138;16.952;2023-01-25T05:49:40;78957.47;;;-146.39;100.00
40460;BME280;26164;51.138;16.952;2023-01-25T05:52:15;78953.38;;;-146.39;100.00
40460;BME280;26164;51.138;16.952;2023-01-25T05:54:42;78953.38;;;-146.39;100.00
40460;BME280;26164;51.138;16.952;2023-01-25T05:57:12;78961.56;;;-146.39;100.00
40460;BME280;26164;51.138;16.952;2023-01-25T05:59:45;78967.69;;;-146.39;100.00
40460;BME280;26164;51.138;16.952;2023-01-25T06:02:15;78969.72;;;-146.39;100.00
40460;BME280;26164;51.138;16.952;2023-01-25T06:04:42;78965.63;;;-146.39;100.00
40460;BME280;26164;51.138;16.952;2023-01-25T06:07:08;78967.69;;;-146.39;100.00
40460;BME280;26164;51.138;16.952;2023-01-25T06:09:35;78967.69;;;-146.39;100.00
40460;BME280;26164;51.138;16.952;2023-01-25T06:12:01;78957.47;;;-146.39;100.00
40460;BME280;26164;51.138;16.952;2023-01-25T06:14:28;78955.44;;;-146.39;100.00
40460;BME280;26164;51.138;16.952;2023-01-25T06:16:54;78961.56;;;-146.39;100.00
40460;BME280;26164;51.138;16.952;2023-01-25T06:19:39;78949.28;;;-146.39;100.00
40460;BME280;26164;51.138;16.952;2023-01-25T06:22:17;78941.13;;;-146.39;100.00
40460;BME280;26164;51.138;16.952;2023-01-25T06:24:43;78943.16;;;-146.39;100.00
40460;BME280;26164;51.138;16.952;2023-01-25T06:27:09;78953.38;;;-146.39;100.00
40460;BME280;26164;51.138;16.952;2023-01-25T06:29:37;78943.16;;;-146.39;100.00
40460;BME280;26164;51.138;16.952;2023-01-25T06:32:03;78937.03;;;-146.39;100.00
40460;BME280;26164;51.138;16.952;2023-01-25T06:34:29;78949.28;;;-146.39;100.00
40460;BME280;26164;51.138;16.952;2023-01-25T06:36:55;78961.56;;;-146.39;100.00
40460;BME280;26164;51.138;16.952;2023-01-25T06:39:21;78969.72;;;-146.39;100.00
40460;BME280;26164;51.138;16.952;2023-01-25T06:41:46;78961.56;;;-146.39;100.00
40460;BME280;26164;51.138;16.952;2023-01-25T06:44:12;78957.47;;;-146.39;100.00
40460;BME280;26164;51.138;16.952;2023-01-25T06:46:38;78951.34;;;-146.39;100.00
40460;BME280;26164;51.138;16.952;2023-01-25T06:49:04;78951.34;;;-146.39;100.00
40460;BME280;26164;51.138;16.952;2023-01-25T06:51:33;78951.34;;;-146.39;100.00
40460;BME280;26164;51.138;16.952;2023-01-25T06:54:02;78951.34;;;-146.39;100.00
40460;BME280;26164;51.138;16.952;2023-01-25T06:56:29;78943.16;;;-146.39;100.00
40460;BME280;26164;51.138;16.952;2023-01-25T06:58:55;78914.56;;;-146.39;100.00
40460;BME280;26164;51.138;16.952;2023-01-25T07:01:22;78928.88;;;-146.39;100.00
40460;BME280;26164;51.138;16.952;2023-01-25T07:03:55;78928.88;;;-146.39;100.00
40460;BME280;26164;51.138;16.952;2023-01-25T07:06:22;78928.88;;;-146.39;100.00
40460;BME280;26164;51.138;16.952;2023-01-25T07:08:53;78926.81;;;-146.39;100.00
40460;BME280;26164;51.138;16.952;2023-01-25T07:11:22;78928.88;;;-146.39;100.00
40460;BME280;26164;51.138;16.952;2023-01-25T07:13:49;78924.78;;;-146.39;100.00
40460;BME280;26164;51.138;16.952;2023-01-25T07:16:18;78922.75;;;-146.39;100.00
40460;BME280;26164;51.138;16.952;2023-01-25T07:18:44;78928.88;;;-146.39;100.00
40460;BME280;26164;51.138;16.952;2023-01-25T07:21:19;78920.69;;;-146.39;100.00
40460;BME280;26164;51.138;16.952;2023-01-25T07:23:47;78918.66;;;-146.39;100.00
40460;BME280;26164;51.138;16.952;2023-01-25T07:28:45;78920.69;;;-146.39;100.00
40460;BME280;26164;51.138;16.952;2023-01-25T07:31:15;78910.50;;;-146.39;100.00
40460;BME280;26164;51.138;16.952;2023-01-25T07:33:41;78900.28;;;-146.39;100.00
40460;BME280;26164;51.138;16.952;2023-01-25T07:36:09;78904.34;;;-146.39;100.00
40460;BME280;26164;51.138;16.952;2023-01-25T07:38:35;78916.63;;;-146.39;100.00
40460;BME280;26164;51.138;16.952;2023-01-25T07:41:02;78910.50;;;-146.39;100.00
40460;BME280;26164;51.138;16.952;2023-01-25T07:43:29;78908.44;;;-146.39;100.00
40460;BME280;26164;51.138;16.952;2023-01-25T07:46:00;78892.09;;;-146.39;100.00
40460;BME280;26164;51.138;16.952;2023-01-25T07:48:26;78888.00;;;-146.39;100.00
40460;BME280;26164;51.138;16.952;2023-01-25T07:50:57;78896.19;;;-146.39;100.00
40460;BME280;26164;51.138;16.952;2023-01-25T07:53:42;78875.75;;;-146.39;100.00
40460;BME280;26164;51.138;16.952;2023-01-25T07:56:11;78896.19;;;-146.39;100.00
40460;BME280;26164;51.138;16.952;2023-01-25T07:58:37;78900.28;;;-146.39;100.00
40460;BME280;26164;51.138;16.952;2023-01-25T08:01:12;78900.28;;;-146.39;100.00
40460;BME280;26164;51.138;16.952;2023-01-25T08:03:39;78892.09;;;-146.39;100.00
40460;BME280;26164;51.138;16.952;2023-01-25T08:06:07;78877.81;;;-146.39;100.00
40460;BME280;26164;51.138;16.952;2023-01-25T08:08:36;78879.84;;;-146.39;100.00
40460;BME280;26164;51.138;16.952;2023-01-25T08:11:21;78879.84;;;-146.39;100.00
40460;BME280;26164;51.138;16.952;2023-01-25T08:13:48;78877.81;;;-146.39;100.00
40460;BME280;26164;51.138;16.952;2023-01-25T08:16:20;78883.94;;;-146.39;100.00
40460;BME280;26164;51.138;16.952;2023-01-25T08:18:48;78873.72;;;-146.39;100.00
40460;BME280;26164;51.138;16.952;2023-01-25T08:21:17;78871.69;;;-146.39;100.00
40460;BME280;26164;51.138;16.952;2023-01-25T08:23:43;78871.69;;;-146.39;100.00
40460;BME280;26164;51.138;16.952;2023-01-25T08:26:11;78879.84;;;-146.39;100.00
40460;BME280;26164;51.138;16.952;2023-01-25T08:28:39;78871.69;;;-146.39;100.00
40460;BME280;26164;51.138;16.952;2023-01-25T08:31:16;78863.50;;;-146.39;100.00
40460;BME280;26164;51.138;16.952;2023-01-25T08:33:44;78871.69;;;-146.39;100.00
40460;BME280;26164;51.138;16.952;2023-01-25T08:36:12;78863.50;;;-146.39;100.00
40460;BME280;26164;51.138;16.952;2023-01-25T08:38:38;78863.50;;;-146.39;100.00
40460;BME280;26164;51.138;16.952;2023-01-25T08:41:05;78861.47;;;-146.39;100.00
40460;BME280;26164;51.138;16.952;2023-01-25T08:43:32;78875.75;;;-146.39;100.00
40460;BME280;26164;51.138;16.952;2023-01-25T08:46:00;78869.63;;;-146.39;100.00
40460;BME280;26164;51.138;16.952;2023-01-25T08:48:27;78865.53;;;-146.39;100.00
40460;BME280;26164;51.138;16.952;2023-01-25T08:50:54;78849.22;;;-146.39;100.00
40460;BME280;26164;51.138;16.952;2023-01-25T08:53:20;78859.41;;;-146.39;100.00
40460;BME280;26164;51.138;16.952;2023-01-25T08:55:46;78859.41;;;-146.39;100.00
40460;BME280;26164;51.138;16.952;2023-01-25T08:58:15;78830.81;;;-146.39;100.00
40460;BME280;26164;51.138;16.952;2023-01-25T09:01:00;78839.00;;;-146.39;100.00
40460;BME280;26164;51.138;16.952;2023-01-25T09:03:26;78830.81;;;-146.39;100.00
40460;BME280;26164;51.138;16.952;2023-01-25T09:05:52;78826.75;;;-146.39;100.00
40460;BME280;26164;51.138;16.952;2023-01-25T09:08:23;78824.69;;;-146.39;100.00
40460;BME280;26164;51.138;16.952;2023-01-25T09:10:49;78826.75;;;-146.39;100.00
40460;BME280;26164;51.138;16.952;2023-01-25T09:13:15;78822.66;;;-146.39;100.00
40460;BME280;26164;51.138;16.952;2023-01-25T09:15:41;78826.75;;;-146.39;100.00
40460;BME280;26164;51.138;16.952;2023-01-25T09:18:07;78824.69;;;-146.39;100.00
40460;BME280;26164;51.138;16.952;2023-01-25T09:20:33;78826.75;;;-146.39;100.00
40460;BME280;26164;51.138;16.952;2023-01-25T09:23:01;78814.47;;;-146.39;100.00
40460;BME280;26164;51.138;16.952;2023-01-25T09:25:30;78808.34;;;-146.39;100.00
40460;BME280;26164;51.138;16.952;2023-01-25T09:27:57;78822.66;;;-146.39;100.00
40460;BME280;26164;51.138;16.952;2023-01-25T09:30:34;78806.31;;;-146.39;100.00
40460;BME280;26164;51.138;16.952;2023-01-25T09:33:00;78798.13;;;-146.39;100.00
40460;BME280;26164;51.138;16.952;2023-01-25T09:35:29;78798.13;;;-146.39;100.00
40460;BME280;26164;51.138;16.952;2023-01-25T09:37:56;78804.28;;;-146.39;100.00
40460;BME280;26164;51.138;16.952;2023-01-25T09:40:23;78781.78;;;-146.39;100.00
40460;BME280;26164;51.138;16.952;2023-01-25T09:42:59;78755.25;;;-146.39;100.00
40460;BME280;26164;51.138;16.952;2023-01-25T09:45:33;78747.06;;;-146.39;100.00
40460;BME280;26164;51.138;16.952;2023-01-25T09:48:19;78736.88;;;-146.39;100.00
40460;BME280;26164;51.138;16.952;2023-01-25T09:53:28;78696.00;;;-146.39;100.00
40460;BME280;26164;51.138;16.952;2023-01-25T09:56:00;78700.09;;;-146.39;100.00
40460;BME280;26164;51.138;16.952;2023-01-25T09:58:32;78712.34;;;-146.39;100.00
40460;BME280;26164;51.138;16.952;2023-01-25T10:01:08;78710.31;;;-146.39;100.00
40460;BME280;26164;51.138;16.952;2023-01-25T10:03:47;78693.97;;;-146.39;100.00
40460;BME280;26164;51.138;16.952;2023-01-25T10:06:15;78691.91;;;-146.39;100.00
40460;BME280;26164;51.138;16.952;2023-01-25T10:09:03;78706.22;;;-146.39;100.00
40460;BME280;26164;51.138;16.952;2023-01-25T10:11:33;78700.09;;;-146.39;100.00
40460;BME280;26164;51.138;16.952;2023-01-25T10:13:59;78696.00;;;-146.39;100.00
40460;BME280;26164;51.138;16.952;2023-01-25T10:16:35;78696.00;;;-146.39;100.00
40460;BME280;26164;51.138;16.952;2023-01-25T10:19:24;78708.25;;;-146.39;100.00
40460;BME280;26164;51.138;16.952;2023-01-25T10:22:16;78700.09;;;-146.39;100.00
40460;BME280;26164;51.138;16.952;2023-01-25T10:30:29;78708.25;;;-146.39;100.00
40460;BME280;26164;51.138;16.952;2023-01-25T10:33:11;78704.19;;;-146.39;100.00
40460;BME280;26164;51.138;16.952;2023-01-25T10:35:43;78696.00;;;-146.39;100.00
40460;BME280;26164;51.138;16.952;2023-01-25T10:38:20;78696.00;;;-146.39;100.00
40460;BME280;26164;51.138;16.952;2023-01-25T10:43:39;78671.50;;;-146.39;100.00
40460;BME280;26164;51.138;16.952;2023-01-25T10:46:17;78667.41;;;-146.39;100.00
40460;BME280;26164;51.138;16.952;2023-01-25T10:48:44;78653.13;;;-146.39;100.00
40460;BME280;26164;51.138;16.952;2023-01-25T10:51:27;78651.06;;;-146.39;100.00
40460;BME280;26164;51.138;16.952;2023-01-25T10:53:58;78647.00;;;-146.39;100.00
40460;BME280;26164;51.138;16.952;2023-01-25T10:56:26;78661.28;;;-146.39;100.00
40460;BME280;26164;51.138;16.952;2023-01-25T10:59:07;78653.13;;;-146.39;100.00
40460;BME280;26164;51.138;16.952;2023-01-25T11:01:39;78675.59;;;-146.39;100.00
40460;BME280;26164;51.138;16.952;2023-01-25T11:04:22;78663.31;;;-146.39;100.00
40460;BME280;26164;51.138;16.952;2023-01-25T11:06:49;78642.91;;;-146.39;100.00
40460;BME280;26164;51.138;16.952;2023-01-25T11:11:57;78634.72;;;-146.39;100.00
40460;BME280;26164;51.138;16.952;2023-01-25T11:14:25;78634.72;;;-146.39;100.00
40460;BME280;26164;51.138;16.952;2023-01-25T11:16:53;78632.69;;;-146.39;100.00
40460;BME280;26164;51.138;16.952;2023-01-25T11:19:40;78618.38;;;-146.39;100.00
40460;BME280;26164;51.138;16.952;2023-01-25T11:22:22;78597.97;;;-146.39;100.00
40460;BME280;26164;51.138;16.952;2023-01-25T11:24:49;78608.19;;;-146.39;100.00
40460;BME280;26164;51.138;16.952;2023-01-25T11:27:23;78597.97;;;-146.39;100.00
40460;BME280;26164;51.138;16.952;2023-01-25T11:30:18;78585.72;;;-146.39;100.00
40460;BME280;26164;51.138;16.952;2023-01-25T11:32:45;78581.63;;;-146.39;100.00
40460;BME280;26164;51.138;16.952;2023-01-25T11:35:26;78565.28;;;-146.39;100.00
40460;BME280;26164;51.138;16.952;2023-01-25T11:38:28;78573.47;;;-146.39;100.00
40460;BME280;26164;51.138;16.952;2023-01-25T11:41:18;78571.41;;;-146.39;100.00
40460;BME280;26164;51.138;16.952;2023-01-25T11:47:03;78548.94;;;-146.39;100.00
40460;BME280;26164;51.138;16.952;2023-01-25T11:49:49;78544.84;;;-146.39;100.00
40460;BME280;26164;51.138;16.952;2023-01-25T11:55:15;78542.81;;;-146.39;100.00
40460;BME280;26164;51.138;16.952;2023-01-25T12:00:47;78542.81;;;-146.39;100.00
40460;BME280;26164;51.138;16.952;2023-01-25T12:03:43;78540.78;;;-146.39;100.00
40460;BME280;26164;51.138;16.952;2023-01-25T12:06:26;78548.94;;;-146.39;100.00
40460;BME280;26164;51.138;16.952;2023-01-25T12:09:19;78536.69;;;-146.39;100.00
40460;BME280;26164;51.138;16.952;2023-01-25T12:11:57;78528.53;;;-146.39;100.00
40460;BME280;26164;51.138;16.952;2023-01-25T12:17:26;78520.34;;;-146.39;100.00
40460;BME280;26164;51.138;16.952;2023-01-25T12:23:00;78540.78;;;-146.39;100.00
40460;BME280;26164;51.138;16.952;2023-01-25T12:25:55;78557.13;;;-146.39;100.00
40460;BME280;26164;51.138;16.952;2023-01-25T12:28:32;78553.03;;;-146.39;100.00
40460;BME280;26164;51.138;16.952;2023-01-25T12:31:11;78548.94;;;-146.39;100.00
40460;BME280;26164;51.138;16.952;2023-01-25T12:34:03;78540.78;;;-146.39;100.00
40460;BME280;26164;51.138;16.952;2023-01-25T12:36:36;78542.81;;;-146.39;100.00
40460;BME280;26164;51.138;16.952;2023-01-25T12:39:08;78544.84;;;-146.39;100.00
40460;BME280;26164;51.138;16.952;2023-01-25T12:41:38;78548.94;;;-146.39;100.00
40460;BME280;26164;51.138;16.952;2023-01-25T12:46:43;78536.69;;;-146.39;100.00
40460;BME280;26164;51.138;16.952;2023-01-25T12:49:22;78540.78;;;-146.39;100.00
40460;BME280;26164;51.138;16.952;2023-01-25T12:51:52;78532.59;;;-146.39;100.00
40460;BME280;26164;51.138;16.952;2023-01-25T12:54:28;78524.44;;;-146.39;100.00
40460;BME280;26164;51.138;16.952;2023-01-25T12:57:21;78532.59;;;-146.39;100.00
40460;BME280;26164;51.138;16.952;2023-01-25T13:00:02;78530.56;;;-146.39;100.00
40460;BME280;26164;51.138;16.952;2023-01-25T13:06:30;78528.53;;;-146.39;100.00
40460;BME280;26164;51.138;16.952;2023-01-25T13:09:15;78528.53;;;-146.39;100.00
40460;BME280;26164;51.138;16.952;2023-01-25T13:11:45;78520.34;;;-146.39;100.00
40460;BME280;26164;51.138;16.952;2023-01-25T13:16:49;78520.34;;;-146.39;100.00
40460;BME280;26164;51.138;16.952;2023-01-25T13:21:59;78512.19;;;-146.39;100.00
40460;BME280;26164;51.138;16.952;2023-01-25T13:24:29;78512.19;;;-146.39;100.00
40460;BME280;26164;51.138;16.952;2023-01-25T13:27:08;78495.84;;;-146.39;100.00